createdAt,value
2022-08-16T00:00:49.858Z,23.21
2022-08-16T00:03:20.360Z,23.12
2022-08-16T00:05:49.110Z,23.16
2022-08-16T00:08:36.721Z,23.05
2022-08-16T00:11:07.300Z,23.08
2022-08-16T00:13:41.644Z,23.22
2022-08-16T00:16:57.999Z,23.15
2022-08-16T00:18:59.891Z,23.24
2022-08-16T00:21:29.157Z,23.23
2022-08-16T00:23:57.313Z,23.16
2022-08-16T00:26:36.408Z,23.15
2022-08-16T00:29:18.641Z,23.16
2022-08-16T00:32:01.082Z,23.01
2022-08-16T00:34:44.498Z,23.13
2022-08-16T00:37:24.462Z,23.12
2022-08-16T00:39:57.502Z,22.85
2022-08-16T00:42:30.507Z,22.94
2022-08-16T00:45:09.716Z,23.02
2022-08-16T00:47:49.065Z,22.94
2022-08-16T00:50:18.620Z,22.88
2022-08-16T00:52:51.187Z,22.92
2022-08-16T00:55:24.955Z,22.75
2022-08-16T00:58:13.256Z,22.73
2022-08-16T01:00:53.894Z,22.63
2022-08-16T01:03:29.986Z,22.68
2022-08-16T01:05:58.555Z,22.66
2022-08-16T01:08:35.031Z,22.58
2022-08-16T01:11:04.781Z,22.61
2022-08-16T01:13:37.104Z,22.62
2022-08-16T01:16:11.213Z,22.61
2022-08-16T01:18:45.192Z,22.52
2022-08-16T01:21:33.598Z,22.59
2022-08-16T01:24:53.493Z,22.63
2022-08-16T01:27:06.294Z,22.56
2022-08-16T01:29:57.170Z,22.72
2022-08-16T01:32:33.832Z,22.63
2022-08-16T01:35:08.691Z,22.50
2022-08-16T01:37:53.824Z,22.49
2022-08-16T01:40:29.112Z,22.47
2022-08-16T01:42:58.213Z,22.61
2022-08-16T01:45:39.725Z,22.55
2022-08-16T01:48:19.425Z,22.65
2022-08-16T01:51:08.417Z,22.73
2022-08-16T01:53:40.604Z,22.54
2022-08-16T01:56:28.016Z,22.52
2022-08-16T01:59:01.593Z,22.61
2022-08-16T02:01:31.988Z,22.62
2022-08-16T02:04:10.384Z,22.59
2022-08-16T02:06:46.683Z,22.61
2022-08-16T02:09:19.250Z,22.55
2022-08-16T02:11:55.778Z,22.56
2022-08-16T02:14:26.343Z,22.54
2022-08-16T02:16:57.342Z,22.38
2022-08-16T02:19:59.759Z,22.41
2022-08-16T02:22:33.648Z,22.43
2022-08-16T02:25:05.803Z,22.32
2022-08-16T02:27:35.111Z,22.39
2022-08-16T02:30:07.574Z,22.36
2022-08-16T02:32:50.753Z,22.25
2022-08-16T02:35:23.758Z,22.34
2022-08-16T02:37:53.130Z,22.31
2022-08-16T02:40:26.097Z,22.33
2022-08-16T02:42:56.568Z,22.41
2022-08-16T02:45:28.243Z,22.40
2022-08-16T02:48:01.744Z,22.38
2022-08-16T02:50:54.256Z,22.23
2022-08-16T02:53:31.563Z,22.20
2022-08-16T02:56:00.445Z,22.38
2022-08-16T02:58:33.737Z,22.36
2022-08-16T03:01:02.426Z,22.36
2022-08-16T03:04:41.209Z,22.35
2022-08-16T03:06:41.832Z,22.23
2022-08-16T03:09:19.793Z,22.33
2022-08-16T03:11:52.345Z,22.37
2022-08-16T03:14:24.554Z,22.36
2022-08-16T03:16:59.599Z,22.33
2022-08-16T03:19:48.569Z,22.23
2022-08-16T03:22:27.987Z,22.24
2022-08-16T03:25:01.122Z,22.17
2022-08-16T03:27:32.905Z,22.18
2022-08-16T03:30:16.752Z,22.23
2022-08-16T03:33:07.571Z,22.03
2022-08-16T03:35:42.938Z,22.02
2022-08-16T03:38:34.039Z,22.17
2022-08-16T03:41:14.408Z,22.12
2022-08-16T03:43:57.009Z,22.08
2022-08-16T03:46:47.419Z,22.15
2022-08-16T03:49:20.378Z,22.17
2022-08-16T03:51:52.364Z,22.19
2022-08-16T03:54:28.591Z,22.18
2022-08-16T03:56:58.632Z,22.12
2022-08-16T03:59:31.521Z,22.22
2022-08-16T04:02:12.631Z,22.18
2022-08-16T04:04:51.883Z,22.19
2022-08-16T04:07:20.054Z,22.22
2022-08-16T04:09:49.474Z,22.22
2022-08-16T04:12:52.423Z,22.23
2022-08-16T04:15:07.233Z,22.22
2022-08-16T04:17:41.264Z,22.22
2022-08-16T04:20:31.687Z,22.30
2022-08-16T04:23:00.901Z,22.20
2022-08-16T04:25:31.252Z,22.23
2022-08-16T04:28:51.989Z,22.36
2022-08-16T04:30:50.496Z,22.36
2022-08-16T04:33:27.425Z,22.42
2022-08-16T04:35:58.834Z,22.33
2022-08-16T04:38:30.612Z,22.25
2022-08-16T04:40:59.861Z,22.30
2022-08-16T04:43:29.291Z,22.34
2022-08-16T04:46:03.139Z,22.39
2022-08-16T04:48:38.636Z,22.46
2022-08-16T04:51:12.639Z,22.52
2022-08-16T04:53:45.805Z,22.56
2022-08-16T04:56:16.416Z,22.46
2022-08-16T04:58:46.810Z,22.45
2022-08-16T05:01:18.590Z,22.50
2022-08-16T05:04:01.183Z,22.61
2022-08-16T05:06:45.896Z,22.64
2022-08-16T05:09:28.479Z,22.65
2022-08-16T05:11:58.588Z,22.50
2022-08-16T05:14:45.721Z,22.58
2022-08-16T05:17:19.367Z,22.46
2022-08-16T05:19:57.356Z,22.57
2022-08-16T05:22:40.172Z,22.71
2022-08-16T05:25:15.874Z,22.87
2022-08-16T05:27:48.684Z,22.88
2022-08-16T05:30:36.810Z,22.86
2022-08-16T05:33:16.933Z,22.92
2022-08-16T05:35:55.478Z,22.89
2022-08-16T05:38:47.512Z,22.97
2022-08-16T05:41:17.213Z,23.04
2022-08-16T05:43:47.828Z,23.08
2022-08-16T05:46:29.923Z,23.20
2022-08-16T05:49:08.636Z,23.24
2022-08-16T05:51:41.710Z,23.40
2022-08-16T05:54:14.474Z,23.39
2022-08-16T05:56:45.910Z,23.46
2022-08-16T05:59:19.805Z,23.59
2022-08-16T06:01:51.987Z,23.50
2022-08-16T06:04:36.387Z,23.54
2022-08-16T06:07:09.480Z,23.48
2022-08-16T06:09:59.753Z,23.64
2022-08-16T06:12:29.256Z,23.49
2022-08-16T06:15:07.806Z,23.59
2022-08-16T06:17:42.951Z,23.61
2022-08-16T06:20:23.462Z,23.58
2022-08-16T06:22:58.670Z,23.70
2022-08-16T06:25:39.161Z,23.73
2022-08-16T06:28:17.167Z,23.66
2022-08-16T06:30:59.515Z,23.80
2022-08-16T06:33:41.141Z,23.76
2022-08-16T06:36:13.916Z,23.88
2022-08-16T06:38:55.978Z,23.89
2022-08-16T06:41:45.024Z,23.99
2022-08-16T06:44:31.884Z,23.88
2022-08-16T06:47:03.572Z,24.04
2022-08-16T06:49:31.962Z,24.09
2022-08-16T06:52:02.767Z,24.00
2022-08-16T06:54:38.279Z,24.13
2022-08-16T06:57:11.805Z,24.00
2022-08-16T06:59:52.230Z,24.51
2022-08-16T07:02:33.053Z,24.65
2022-08-16T07:05:03.663Z,24.83
2022-08-16T07:07:50.994Z,24.51
2022-08-16T07:10:25.837Z,24.39
2022-08-16T07:13:03.104Z,24.47
2022-08-16T07:15:34.558Z,24.68
2022-08-16T07:18:04.329Z,24.72
2022-08-16T07:20:47.407Z,24.77
2022-08-16T07:23:17.364Z,24.87
2022-08-16T07:25:54.168Z,24.92
2022-08-16T07:28:24.433Z,24.97
2022-08-16T07:30:55.003Z,25.21
2022-08-16T07:33:52.272Z,25.05
2022-08-16T07:36:25.781Z,25.14
2022-08-16T07:38:55.012Z,25.19
2022-08-16T07:41:25.097Z,25.19
2022-08-16T07:43:59.872Z,25.26
2022-08-16T07:46:39.647Z,25.18
2022-08-16T07:49:32.509Z,25.35
2022-08-16T07:52:02.817Z,25.55
2022-08-16T07:54:49.161Z,25.51
2022-08-16T07:57:24.257Z,25.46
2022-08-16T07:59:54.072Z,25.50
2022-08-16T08:02:27.187Z,25.66
2022-08-16T08:04:57.880Z,25.53
2022-08-16T08:07:29.214Z,25.84
2022-08-16T08:10:02.291Z,25.67
2022-08-16T08:12:36.001Z,25.82
2022-08-16T08:15:09.737Z,25.78
2022-08-16T08:18:49.921Z,25.78
2022-08-16T08:20:33.860Z,25.64
2022-08-16T08:23:03.181Z,26.05
2022-08-16T08:25:52.754Z,26.05
2022-08-16T08:28:25.680Z,26.07
2022-08-16T08:31:00.868Z,26.13
2022-08-16T08:33:31.371Z,26.26
2022-08-16T08:36:01.400Z,26.39
2022-08-16T08:38:44.260Z,26.75
2022-08-16T08:41:18.571Z,26.42
2022-08-16T08:43:51.869Z,26.46
2022-08-16T08:46:22.041Z,26.51
2022-08-16T08:48:59.628Z,26.66
2022-08-16T08:51:36.815Z,26.71
2022-08-16T08:54:09.148Z,26.45
2022-08-16T08:56:45.937Z,26.50
2022-08-16T08:59:41.374Z,26.71
2022-08-16T09:02:12.794Z,26.84
2022-08-16T09:04:47.498Z,26.94
2022-08-16T09:07:18.413Z,27.11
2022-08-16T09:09:48.167Z,27.10
2022-08-16T09:12:35.341Z,26.99
2022-08-16T09:15:15.626Z,27.32
2022-08-16T09:17:51.725Z,27.73
2022-08-16T09:20:23.779Z,28.48
2022-08-16T09:22:54.690Z,28.85
2022-08-16T09:25:44.301Z,29.24
2022-08-16T09:29:13.311Z,29.68
2022-08-16T09:31:19.878Z,30.49
2022-08-16T09:33:52.021Z,30.54
2022-08-16T09:36:31.837Z,30.94
2022-08-16T09:39:02.206Z,31.14
2022-08-16T09:41:32.702Z,31.33
2022-08-16T09:45:09.390Z,31.39
2022-08-16T09:46:57.616Z,31.16
2022-08-16T09:49:37.071Z,31.80
2022-08-16T09:52:05.896Z,32.21
2022-08-16T09:54:34.332Z,32.16
2022-08-16T09:57:02.849Z,32.33
2022-08-16T09:59:31.379Z,32.60
2022-08-16T10:02:26.989Z,32.34
2022-08-16T10:04:57.784Z,32.80
2022-08-16T10:07:27.024Z,32.90
2022-08-16T10:10:12.994Z,32.91
2022-08-16T10:13:04.462Z,32.72
2022-08-16T10:15:33.843Z,33.23
2022-08-16T10:18:56.423Z,33.37
2022-08-16T10:20:59.543Z,33.13
2022-08-16T10:23:29.588Z,33.93
2022-08-16T10:27:20.323Z,33.89
2022-08-16T10:28:45.539Z,33.18
2022-08-16T10:31:44.131Z,32.67
2022-08-16T10:34:23.994Z,33.30
2022-08-16T10:36:55.853Z,33.61
2022-08-16T10:39:23.799Z,33.37
2022-08-16T10:41:52.354Z,33.01
2022-08-16T10:44:21.100Z,33.58
2022-08-16T10:46:49.182Z,34.16
2022-08-16T10:49:19.385Z,33.80
2022-08-16T10:52:01.070Z,32.87
2022-08-16T10:54:32.085Z,33.23
2022-08-16T10:57:00.614Z,33.85
2022-08-16T10:59:38.415Z,33.95
2022-08-16T11:02:58.726Z,33.58
2022-08-16T11:05:08.688Z,33.61
2022-08-16T11:07:45.500Z,34.29
2022-08-16T11:16:25.464Z,34.33
2022-08-16T11:19:05.212Z,34.99
2022-08-16T11:24:39.709Z,34.68
2022-08-16T11:27:35.502Z,34.60
2022-08-16T11:29:58.061Z,34.30
2022-08-16T11:32:31.681Z,33.89
2022-08-16T11:35:11.003Z,34.10
2022-08-16T11:38:46.265Z,34.48
2022-08-16T11:40:46.918Z,33.81
2022-08-16T11:43:24.944Z,32.37
2022-08-16T11:45:56.590Z,32.34
2022-08-16T11:48:25.951Z,33.05
2022-08-16T11:50:54.281Z,33.28
2022-08-16T11:53:25.377Z,32.81
2022-08-16T11:55:55.037Z,32.96
2022-08-16T11:58:24.572Z,32.81
2022-08-16T12:00:54.427Z,32.41
2022-08-16T12:03:34.312Z,32.20
2022-08-16T12:06:08.130Z,33.08
2022-08-16T12:08:43.148Z,33.32
2022-08-16T12:11:11.684Z,33.97
2022-08-16T12:13:40.887Z,34.04
2022-08-16T12:16:10.150Z,34.46
2022-08-16T12:18:40.247Z,34.17
2022-08-16T12:21:09.849Z,34.22
2022-08-16T12:23:38.506Z,34.31
2022-08-16T12:26:10.588Z,34.44
2022-08-16T12:28:54.648Z,34.39
2022-08-16T12:31:25.716Z,34.55
2022-08-16T12:33:54.162Z,34.53
2022-08-16T12:36:24.631Z,34.94
2022-08-16T12:38:53.274Z,34.53
2022-08-16T12:41:25.450Z,33.50
2022-08-16T12:43:56.918Z,33.02
2022-08-16T12:46:31.126Z,33.03
2022-08-16T12:48:59.996Z,32.54
2022-08-16T12:51:57.553Z,32.40
2022-08-16T12:54:33.242Z,32.56
2022-08-16T12:57:03.115Z,32.64
2022-08-16T12:59:31.771Z,33.30
2022-08-16T13:02:12.667Z,34.03
2022-08-16T13:04:57.481Z,34.26
2022-08-16T13:07:27.275Z,34.11
2022-08-16T13:09:58.315Z,33.83
2022-08-16T13:12:28.389Z,34.10
2022-08-16T13:14:56.934Z,33.53
2022-08-16T13:17:29.856Z,33.51
2022-08-16T13:20:08.744Z,33.77
2022-08-16T13:25:10.555Z,34.32
2022-08-16T13:28:02.987Z,33.88
2022-08-16T13:30:41.650Z,33.08
2022-08-16T13:33:13.928Z,33.34
2022-08-16T13:35:45.607Z,33.13
2022-08-16T13:38:24.940Z,33.05
2022-08-16T13:40:55.959Z,33.39
2022-08-16T13:43:26.774Z,33.29
2022-08-16T13:45:55.918Z,33.00
2022-08-16T13:48:26.124Z,32.68
2022-08-16T13:50:55.070Z,32.60
2022-08-16T13:53:28.250Z,32.50
2022-08-16T13:55:59.249Z,32.51
2022-08-16T13:58:37.416Z,32.72
2022-08-16T14:01:18.328Z,32.06
2022-08-16T14:03:47.097Z,32.12
2022-08-16T14:06:15.541Z,32.17
2022-08-16T14:08:50.437Z,32.28
2022-08-16T14:11:29.135Z,32.52
2022-08-16T14:13:59.388Z,32.92
2022-08-16T14:16:33.719Z,32.68
2022-08-16T14:19:02.640Z,32.85
2022-08-16T14:21:35.308Z,32.56
2022-08-16T14:24:12.773Z,32.35
2022-08-16T14:26:53.716Z,32.17
2022-08-16T14:29:23.099Z,31.71
2022-08-16T14:31:53.683Z,32.35
2022-08-16T14:34:25.778Z,31.97
2022-08-16T14:36:57.043Z,31.95
2022-08-16T14:39:25.070Z,31.95
2022-08-16T14:41:53.491Z,32.17
2022-08-16T14:44:26.324Z,32.24
2022-08-16T14:46:55.156Z,32.57
2022-08-16T14:49:23.924Z,32.65
2022-08-16T14:51:52.114Z,32.45
2022-08-16T14:54:21.708Z,32.24
2022-08-16T14:56:54.578Z,32.23
2022-08-16T14:59:24.207Z,32.24
2022-08-16T15:01:59.113Z,32.51
2022-08-16T15:04:36.882Z,32.71
2022-08-16T15:07:11.102Z,32.37
2022-08-16T15:09:44.830Z,32.12
2022-08-16T15:12:33.300Z,31.94
2022-08-16T15:15:12.286Z,31.90
2022-08-16T15:17:56.147Z,31.59
2022-08-16T15:20:26.786Z,31.66
2022-08-16T15:22:55.527Z,31.58
2022-08-16T15:25:27.539Z,31.72
2022-08-16T15:27:57.351Z,31.80
2022-08-16T15:30:56.453Z,32.01
2022-08-16T15:33:18.228Z,31.98
2022-08-16T15:35:50.679Z,32.01
2022-08-16T15:38:56.824Z,32.07
2022-08-16T15:41:07.496Z,32.16
2022-08-16T15:43:39.498Z,32.13
2022-08-16T15:46:35.248Z,31.91
2022-08-16T15:49:13.287Z,32.15
2022-08-16T15:51:43.577Z,31.85
2022-08-16T15:54:20.971Z,32.02
2022-08-16T15:57:02.998Z,31.92
2022-08-16T15:59:49.004Z,32.16
2022-08-16T16:02:29.336Z,32.14
2022-08-16T16:05:01.791Z,31.98
2022-08-16T16:07:32.046Z,31.99
2022-08-16T16:10:02.071Z,31.91
2022-08-16T16:12:51.582Z,31.32
2022-08-16T16:15:20.227Z,31.55
2022-08-16T16:17:52.971Z,31.64
2022-08-16T16:20:24.503Z,31.68
2022-08-16T16:22:56.967Z,31.65
2022-08-16T16:25:26.811Z,31.67
2022-08-16T16:27:55.873Z,31.81
2022-08-16T16:30:38.222Z,31.63
2022-08-16T16:33:20.939Z,31.71
2022-08-16T16:35:55.588Z,31.65
2022-08-16T16:38:30.827Z,31.60
2022-08-16T16:41:00.864Z,31.63
2022-08-16T16:43:31.537Z,31.61
2022-08-16T16:46:00.554Z,31.72
2022-08-16T16:48:35.052Z,31.60
2022-08-16T16:51:09.426Z,31.50
2022-08-16T16:53:42.081Z,31.47
2022-08-16T16:56:19.851Z,31.30
2022-08-16T16:58:57.114Z,31.49
2022-08-16T17:01:57.113Z,31.08
2022-08-16T17:04:23.905Z,31.20
2022-08-16T17:06:59.905Z,31.42
2022-08-16T17:09:27.827Z,31.33
2022-08-16T17:11:56.367Z,31.21
2022-08-16T17:17:13.256Z,31.33
2022-08-16T17:19:43.188Z,31.36
2022-08-16T17:22:15.595Z,31.24
2022-08-16T17:24:50.529Z,31.32
2022-08-16T17:27:33.969Z,31.13
2022-08-16T17:30:15.639Z,31.06
2022-08-16T17:32:48.753Z,31.14
2022-08-16T17:35:34.079Z,31.07
2022-08-16T17:38:05.844Z,31.04
2022-08-16T17:39:26.340Z,31.27
2022-08-16T17:40:47.573Z,31.01
2022-08-16T17:43:27.464Z,30.92
2022-08-16T17:45:55.773Z,30.74
2022-08-16T17:48:23.920Z,30.79
2022-08-16T17:50:54.521Z,30.78
2022-08-16T17:53:22.983Z,30.69
2022-08-16T17:55:51.563Z,30.60
2022-08-16T17:58:23.387Z,30.57
2022-08-16T18:00:54.423Z,30.52
2022-08-16T18:04:03.018Z,30.43
2022-08-16T18:06:18.469Z,30.32
2022-08-16T18:08:49.005Z,30.26
2022-08-16T18:11:25.643Z,30.13
2022-08-16T18:13:55.617Z,30.08
2022-08-16T18:16:24.160Z,30.03
2022-08-16T18:18:52.124Z,30.06
2022-08-16T18:21:39.021Z,29.90
2022-08-16T18:24:07.279Z,29.94
2022-08-16T18:26:35.651Z,29.75
2022-08-16T18:29:03.574Z,29.75
2022-08-16T18:31:31.886Z,29.65
2022-08-16T18:34:01.270Z,29.63
2022-08-16T18:36:31.029Z,29.56
2022-08-16T18:38:59.483Z,29.49
2022-08-16T18:41:29.002Z,29.38
2022-08-16T18:44:25.746Z,29.33
2022-08-16T18:46:51.187Z,29.23
2022-08-16T18:49:19.731Z,29.19
2022-08-16T18:51:50.745Z,29.15
2022-08-16T18:54:19.358Z,29.12
2022-08-16T18:56:53.851Z,29.03
2022-08-16T18:59:26.346Z,28.95
2022-08-16T19:01:59.654Z,28.87
2022-08-16T19:04:48.013Z,28.76
2022-08-16T19:07:17.931Z,28.69
2022-08-16T19:09:45.966Z,28.64
2022-08-16T19:12:16.091Z,28.60
2022-08-16T19:14:45.476Z,28.59
2022-08-16T19:17:13.563Z,28.50
2022-08-16T19:19:41.506Z,28.47
2022-08-16T19:22:09.438Z,28.45
2022-08-16T19:24:39.248Z,28.42
2022-08-16T19:27:10.659Z,28.42
2022-08-16T19:29:38.651Z,28.36
2022-08-16T19:32:17.453Z,28.32
2022-08-16T19:34:45.365Z,28.27
2022-08-16T19:37:13.396Z,28.23
2022-08-16T19:39:42.765Z,28.17
2022-08-16T19:42:14.138Z,28.07
2022-08-16T19:44:43.948Z,28.10
2022-08-16T19:47:12.667Z,28.01
2022-08-16T19:49:40.990Z,27.93
2022-08-16T19:52:14.905Z,27.96
2022-08-16T19:54:44.573Z,27.93
2022-08-16T19:57:13.340Z,27.90
2022-08-16T19:59:42.046Z,27.80
2022-08-16T20:02:32.618Z,27.83
2022-08-16T20:05:05.455Z,27.74
2022-08-16T20:07:33.469Z,27.67
2022-08-16T20:10:03.022Z,27.66
2022-08-16T20:12:31.013Z,27.59
2022-08-16T20:14:59.234Z,27.57
2022-08-16T20:17:27.304Z,27.58
2022-08-16T20:19:55.386Z,27.53
2022-08-16T20:22:51.870Z,27.47
2022-08-16T20:25:18.933Z,27.44
2022-08-16T20:27:46.906Z,27.38
2022-08-16T20:30:17.370Z,27.38
2022-08-16T20:32:46.486Z,27.45
2022-08-16T20:35:16.862Z,27.39
2022-08-16T20:37:45.033Z,27.33
2022-08-16T20:40:28.070Z,27.29
2022-08-16T20:43:07.342Z,27.20
2022-08-16T20:45:35.704Z,27.10
2022-08-16T20:48:04.550Z,27.07
2022-08-16T20:50:33.158Z,26.99
2022-08-16T20:53:01.643Z,27.05
2022-08-16T20:55:29.962Z,27.06
2022-08-16T20:57:57.898Z,27.05
2022-08-16T21:00:29.186Z,27.05
2022-08-16T21:02:57.184Z,26.98
2022-08-16T21:05:31.289Z,26.96
2022-08-16T21:08:00.089Z,26.94
2022-08-16T21:10:28.500Z,26.94
2022-08-16T21:12:59.405Z,26.94
2022-08-16T21:15:30.393Z,26.85
2022-08-16T21:17:58.726Z,26.75
2022-08-16T21:20:27.988Z,26.77
2022-08-16T21:22:57.016Z,26.71
2022-08-16T21:25:26.992Z,26.76
2022-08-16T21:28:39.958Z,26.74
2022-08-16T21:30:44.612Z,26.70
2022-08-16T21:33:14.955Z,26.67
2022-08-16T21:35:45.185Z,26.61
2022-08-16T21:38:30.217Z,26.60
2022-08-16T21:40:58.717Z,26.53
2022-08-16T21:43:28.698Z,26.50
2022-08-16T21:45:58.228Z,26.45
2022-08-16T21:48:33.608Z,26.43
2022-08-16T21:51:04.456Z,26.42
2022-08-16T21:53:32.552Z,26.40
2022-08-16T21:56:01.178Z,26.36
2022-08-16T21:58:29.725Z,26.33
2022-08-16T22:01:00.031Z,26.28
2022-08-16T22:03:28.357Z,26.26
2022-08-16T22:06:11.968Z,26.22
2022-08-16T22:08:49.082Z,26.21
2022-08-16T22:11:20.346Z,26.18
2022-08-16T22:13:58.031Z,26.13
2022-08-16T22:16:30.175Z,26.11
2022-08-16T22:18:58.129Z,26.11
2022-08-16T22:21:26.307Z,26.12
2022-08-16T22:23:56.981Z,26.08
2022-08-16T22:26:30.405Z,26.04
2022-08-16T22:29:00.406Z,26.01
2022-08-16T22:31:29.937Z,25.99
2022-08-16T22:33:57.948Z,25.95
2022-08-16T22:36:28.164Z,25.92
2022-08-16T22:38:58.736Z,25.90
2022-08-16T22:41:28.906Z,25.88
2022-08-16T22:43:57.154Z,25.88
2022-08-16T22:46:25.564Z,25.83
2022-08-16T22:48:54.900Z,25.78
2022-08-16T22:51:26.341Z,25.81
2022-08-16T22:53:55.375Z,25.78
2022-08-16T22:56:23.695Z,25.76
2022-08-16T22:58:52.249Z,25.71
2022-08-16T23:01:22.280Z,25.73
2022-08-16T23:03:50.744Z,25.72
2022-08-16T23:06:20.001Z,25.68
2022-08-16T23:08:47.932Z,25.63
2022-08-16T23:11:21.310Z,25.63
2022-08-16T23:13:53.700Z,25.59
2022-08-16T23:16:25.119Z,25.62
2022-08-16T23:19:02.016Z,25.55
2022-08-16T23:21:31.977Z,25.58
2022-08-16T23:24:00.168Z,25.55
2022-08-16T23:26:43.914Z,25.53
2022-08-16T23:29:23.398Z,25.50
2022-08-16T23:31:53.505Z,25.45
2022-08-16T23:34:21.863Z,25.44
2022-08-16T23:36:51.231Z,25.43
2022-08-16T23:39:19.397Z,25.40
2022-08-16T23:41:47.473Z,25.33
2022-08-16T23:44:58.703Z,25.30
2022-08-16T23:47:03.507Z,25.26
2022-08-16T23:49:58.303Z,25.16
2022-08-16T23:52:53.143Z,25.14
2022-08-16T23:55:10.375Z,25.15
2022-08-16T23:57:38.209Z,25.15
